Time;durP1;ratioP1;P1;durP2;ratioP2;P2;SDS_P1;SDS_P2;PMS_P1;PMS_P2;Temp;Humidity;BMP_temperature;BMP_pressure;BME280_temperature;BME280_humidity;BME280_pressure;Samples;Min_cycle;Max_cycle;Signal;HPM_P1;HPM_P2
2024/01/25 00:01:06;;;;;;;33.90;8.93;;;;;;;7.68;100.00;102654.50;4995385;28;20096;-66
2024/01/25 00:03:31;;;;;;;33.03;9.25;;;;;;;7.64;100.00;102663.59;5010758;28;20125;-65
2024/01/25 00:05:56;;;;;;;26.20;7.57;;;;;;;7.62;100.00;102667.22;5011603;28;20545;-65
2024/01/25 00:08:22;;;;;;;37.17;8.65;;;;;;;7.61;100.00;102660.09;4990512;28;20022;-65
2024/01/25 00:10:47;;;;;;;35.60;8.95;;;;;;;7.55;100.00;102655.81;5010567;28;20037;-68
2024/01/25 00:13:12;;;;;;;31.15;7.80;;;;;;;7.51;100.00;102649.72;4993262;28;20489;-65
2024/01/25 00:15:38;;;;;;;31.42;7.70;;;;;;;7.47;100.00;102648.06;5010982;28;20502;-65
2024/01/25 00:18:03;;;;;;;30.60;8.00;;;;;;;7.44;100.00;102650.81;4990965;28;20026;-65
2024/01/25 00:20:28;;;;;;;35.90;8.73;;;;;;;7.40;100.00;102646.47;5010058;28;20041;-65
2024/01/25 00:22:54;;;;;;;31.17;8.63;;;;;;;7.35;100.00;102649.31;5010756;28;20018;-65
2024/01/25 00:25:19;;;;;;;39.08;9.75;;;;;;;7.33;100.00;102640.44;5010571;28;20061;-66
2024/01/25 00:27:44;;;;;;;31.88;8.38;;;;;;;7.28;100.00;102645.06;5011390;28;20042;-65
2024/01/25 00:30:10;;;;;;;34.25;8.52;;;;;;;7.22;100.00;102658.63;5009511;28;20041;-65
2024/01/25 00:32:35;;;;;;;35.92;9.23;;;;;;;7.18;100.00;102652.47;5010609;28;20125;-65
2024/01/25 00:35:02;;;;;;;30.70;8.13;;;;;;;7.15;100.00;102647.22;5010909;28;20108;-65
2024/01/25 00:37:27;;;;;;;27.05;8.40;;;;;;;7.12;100.00;102651.81;5015119;28;20037;-68
2024/01/25 00:39:53;;;;;;;38.22;8.70;;;;;;;7.09;100.00;102649.22;5011236;28;20038;-65
2024/01/25 00:42:22;;;;;;;34.72;8.45;;;;;;;7.03;100.00;102649.38;5005006;28;20026;-67
2024/01/25 00:44:47;;;;;;;36.15;9.40;;;;;;;6.97;100.00;102651.34;5004535;28;20044;-65
2024/01/25 00:47:13;;;;;;;29.27;8.25;;;;;;;6.93;100.00;102647.00;5007595;28;22520;-65
2024/01/25 00:49:39;;;;;;;36.55;8.35;;;;;;;6.90;100.00;102647.09;5007277;28;20037;-66
2024/01/25 00:52:05;;;;;;;46.97;9.45;;;;;;;6.88;100.00;102645.38;5011570;28;20611;-66
2024/01/25 00:54:30;;;;;;;35.35;9.13;;;;;;;6.86;100.00;102644.56;5011747;28;20469;-65
2024/01/25 00:56:56;;;;;;;30.40;8.90;;;;;;;6.82;100.00;102651.75;5011073;28;20508;-65
2024/01/25 00:59:21;;;;;;;36.28;9.40;;;;;;;6.81;100.00;102663.41;5009907;28;20033;-65
2024/01/25 01:01:50;;;;;;;32.97;8.25;;;;;;;6.80;100.00;102667.84;5007592;28;20516;-65
2024/01/25 01:04:16;;;;;;;34.33;8.65;;;;;;;6.78;100.00;102663.47;5009447;28;20102;-67
2024/01/25 01:06:41;;;;;;;36.72;7.07;;;;;;;6.72;100.00;102663.63;5009813;28;20039;-67
2024/01/25 01:09:07;;;;;;;34.03;8.90;;;;;;;6.69;100.00;102663.72;5012690;28;20044;-67
2024/01/25 01:11:33;;;;;;;32.78;8.15;;;;;;;6.67;100.00;102668.25;5010553;28;20374;-68
2024/01/25 01:13:58;;;;;;;30.55;8.38;;;;;;;6.63;100.00;102664.75;5009639;28;20026;-67
2024/01/25 01:16:23;;;;;;;35.03;7.00;;;;;;;6.62;100.00;102663.91;5007466;28;20045;-67
2024/01/25 01:18:49;;;;;;;32.88;8.85;;;;;;;6.61;100.00;102659.47;5003953;28;20022;-67
2024/01/25 01:21:14;;;;;;;34.40;8.23;;;;;;;6.55;100.00;102659.63;5010724;28;20140;-67
2024/01/25 01:23:39;;;;;;;32.92;7.93;;;;;;;6.51;100.00;102674.00;4993314;28;20038;-67
2024/01/25 01:26:05;;;;;;;28.15;7.60;;;;;;;6.49;100.00;102675.84;5010240;28;20054;-67
2024/01/25 01:28:30;;;;;;;37.78;8.27;;;;;;;6.44;100.00;102680.41;5009406;28;20431;-67
2024/01/25 01:30:56;;;;;;;35.55;8.27;;;;;;;6.42;100.00;102676.91;5010969;28;20045;-67
2024/01/25 01:33:21;;;;;;;28.05;8.40;;;;;;;6.40;100.00;102678.72;4991107;28;20436;-67
2024/01/25 01:35:46;;;;;;;32.13;8.52;;;;;;;6.36;100.00;102667.28;5009012;28;20030;-67
2024/01/25 01:38:12;;;;;;;30.77;6.82;;;;;;;6.34;100.00;102673.56;5003679;28;20507;-67
2024/01/25 01:40:37;;;;;;;37.30;8.50;;;;;;;6.36;100.00;102677.94;5000296;28;20253;-67
2024/01/25 01:43:03;;;;;;;28.58;8.60;;;;;;;6.34;100.00;102678.91;4988335;28;20030;-67
2024/01/25 01:45:29;;;;;;;28.60;8.20;;;;;;;6.28;100.00;102679.94;5004072;28;20393;-67
2024/01/25 01:47:56;;;;;;;33.65;7.75;;;;;;;6.26;100.00;102682.66;5005244;28;20033;-67
2024/01/25 01:50:21;;;;;;;30.38;7.82;;;;;;;6.22;100.00;102686.34;5000988;28;20030;-67
2024/01/25 01:52:48;;;;;;;32.47;8.93;;;;;;;6.21;100.00;102692.59;4991707;28;20345;-67
2024/01/25 01:55:13;;;;;;;32.90;7.93;;;;;;;6.19;100.00;102685.50;5002480;28;20547;-67
2024/01/25 01:57:39;;;;;;;35.28;8.15;;;;;;;6.17;100.00;102693.56;4989782;28;20022;-67
2024/01/25 02:00:09;;;;;;;25.42;7.43;;;;;;;6.15;100.00;102710.53;5010025;28;20018;-67
2024/01/25 02:02:35;;;;;;;38.33;8.90;;;;;;;6.13;100.00;102713.25;4999118;28;20807;-67
2024/01/25 02:05:00;;;;;;;40.30;8.23;;;;;;;6.07;100.00;102714.25;4988219;28;20056;-67
2024/01/25 02:07:26;;;;;;;29.52;7.88;;;;;;;6.02;100.00;102724.19;5002167;28;20021;-67
2024/01/25 02:09:52;;;;;;;46.75;9.68;;;;;;;6.00;100.00;102717.13;5002154;28;20026;-67
2024/01/25 02:12:17;;;;;;;28.90;8.02;;;;;;;5.88;100.00;102715.59;4985623;28;20108;-66
2024/01/25 02:14:42;;;;;;;30.95;8.27;;;;;;;5.84;100.00;102713.91;5004987;28;20022;-67
2024/01/25 02:17:08;;;;;;;32.38;7.72;;;;;;;5.81;100.00;102727.31;5006414;28;20030;-66
2024/01/25 02:19:33;;;;;;;29.70;8.35;;;;;;;5.75;100.00;102725.66;5005323;28;20580;-67
2024/01/25 02:21:59;;;;;;;27.83;6.57;;;;;;;5.72;100.00;102739.09;5005349;28;20346;-67
2024/01/25 02:24:24;;;;;;;31.17;8.10;;;;;;;5.66;100.00;102748.09;4999864;28;20053;-67
2024/01/25 02:26:49;;;;;;;30.45;8.25;;;;;;;5.65;100.00;102738.38;4999108;28;20053;-67
2024/01/25 02:29:15;;;;;;;41.28;8.70;;;;;;;5.63;100.00;102745.50;5000570;28;20022;-66
2024/01/25 02:31:40;;;;;;;32.65;7.35;;;;;;;5.58;100.00;102748.28;5002920;28;20156;-67
2024/01/25 02:34:06;;;;;;;27.77;6.95;;;;;;;5.54;100.00;102746.56;5008055;28;20377;-67
2024/01/25 02:36:31;;;;;;;30.88;8.15;;;;;;;5.51;100.00;102754.66;4992874;28;20033;-68
2024/01/25 02:38:56;;;;;;;28.27;7.80;;;;;;;5.43;100.00;102745.91;5006782;28;20034;-67
2024/01/25 02:41:22;;;;;;;27.70;8.13;;;;;;;5.39;100.00;102747.78;4985397;28;20021;-67
2024/01/25 02:43:47;;;;;;;30.10;8.10;;;;;;;5.35;100.00;102746.09;4988132;28;20018;-66
2024/01/25 02:46:12;;;;;;;29.27;6.72;;;;;;;5.32;100.00;102758.63;4988800;28;20124;-66
2024/01/25 02:48:38;;;;;;;30.25;8.77;;;;;;;5.32;100.00;102753.28;5004214;28;20033;-66
2024/01/25 02:51:03;;;;;;;28.25;6.70;;;;;;;5.29;100.00;102758.69;5003222;28;20026;-67
2024/01/25 02:53:28;;;;;;;30.73;7.47;;;;;;;5.19;100.00;102753.53;4987934;28;20034;-66
2024/01/25 02:55:54;;;;;;;34.70;6.60;;;;;;;5.17;100.00;102750.03;5005877;28;20037;-67
2024/01/25 02:58:19;;;;;;;28.75;7.90;;;;;;;5.12;100.00;102754.56;5006133;28;20026;-67
2024/01/25 03:00:45;;;;;;;31.85;7.55;;;;;;;5.05;100.00;102742.25;5005996;28;20432;-68
2024/01/25 03:03:10;;;;;;;31.88;7.80;;;;;;;5.02;100.00;102744.97;5004625;28;20061;-66
2024/01/25 03:05:36;;;;;;;26.77;7.25;;;;;;;4.99;100.00;102753.94;5005533;28;20029;-66
2024/01/25 03:08:01;;;;;;;29.00;7.38;;;;;;;4.97;100.00;102749.53;5000411;28;20519;-67
2024/01/25 03:10:27;;;;;;;22.58;7.03;;;;;;;5.00;100.00;102749.47;5002344;28;20650;-67
2024/01/25 03:12:52;;;;;;;28.70;7.70;;;;;;;4.98;100.00;102744.19;5005645;28;20098;-67
2024/01/25 03:15:17;;;;;;;28.77;6.47;;;;;;;4.94;100.00;102739.81;5001405;28;20361;-67
2024/01/25 03:17:43;;;;;;;32.65;8.13;;;;;;;4.96;100.00;102742.44;5002032;28;20029;-66
2024/01/25 03:20:09;;;;;;;35.33;8.07;;;;;;;4.95;100.00;102741.56;5000541;28;20550;-67
2024/01/25 03:22:35;;;;;;;31.95;7.15;;;;;;;4.92;100.00;102735.41;5004392;28;20377;-68
2024/01/25 03:25:00;;;;;;;30.08;7.18;;;;;;;4.90;100.00;102733.69;5004419;28;20018;-67
2024/01/25 03:27:25;;;;;;;27.92;7.50;;;;;;;4.88;100.00;102735.47;5009952;28;20764;-66
2024/01/25 03:29:50;;;;;;;31.38;7.60;;;;;;;4.84;100.00;102739.09;4992058;28;20044;-66
2024/01/25 03:32:16;;;;;;;20.08;5.38;;;;;;;4.76;100.00;102741.03;5008939;28;20323;-67
2024/01/25 03:34:41;;;;;;;31.40;6.78;;;;;;;4.73;100.00;102743.78;5007557;28;20112;-66
2024/01/25 03:37:07;;;;;;;25.20;6.78;;;;;;;4.65;100.00;102753.66;5010193;28;20117;-66
2024/01/25 03:39:32;;;;;;;28.98;6.72;;;;;;;4.60;100.00;102744.88;5008879;28;20108;-67
2024/01/25 03:41:57;;;;;;;29.90;7.13;;;;;;;4.63;100.00;102748.38;5008903;28;20022;-66
2024/01/25 03:44:23;;;;;;;27.90;7.32;;;;;;;4.66;100.00;102750.97;5009252;28;20028;-66
2024/01/25 03:46:49;;;;;;;26.00;5.88;;;;;;;4.64;100.00;102755.47;4991361;28;20079;-67
2024/01/25 03:49:14;;;;;;;34.28;7.38;;;;;;;4.66;100.00;102750.97;4988640;28;20026;-67
2024/01/25 03:51:39;;;;;;;30.67;7.75;;;;;;;4.55;100.00;102753.84;5007662;28;20029;-66
2024/01/25 03:54:05;;;;;;;24.70;6.15;;;;;;;4.54;100.00;102754.75;5008906;28;20040;-67
2024/01/25 03:56:30;;;;;;;28.23;6.85;;;;;;;4.54;100.00;102752.06;5010597;28;20040;-67
2024/01/25 03:58:55;;;;;;;29.98;7.32;;;;;;;4.53;100.00;102755.63;5005774;28;20462;-67
2024/01/25 04:01:20;;;;;;;23.15;6.68;;;;;;;4.51;100.00;102756.56;5009285;28;20111;-67
2024/01/25 04:03:46;;;;;;;32.88;7.20;;;;;;;4.52;100.00;102747.66;5003122;28;20038;-67
2024/01/25 04:06:11;;;;;;;36.60;7.80;;;;;;;4.59;100.00;102746.66;4990120;28;20109;-66
2024/01/25 04:08:36;;;;;;;34.05;7.28;;;;;;;4.57;100.00;102760.91;5008042;28;20594;-66
2024/01/25 04:11:02;;;;;;;25.88;6.30;;;;;;;4.54;100.00;102761.84;4987656;28;20030;-66
2024/01/25 04:13:27;;;;;;;20.42;5.78;;;;;;;4.50;100.00;102758.34;4987068;28;20121;-68
2024/01/25 04:15:52;;;;;;;27.90;6.78;;;;;;;4.48;100.00;102764.59;5006785;28;20018;-67
2024/01/25 04:18:17;;;;;;;33.90;7.47;;;;;;;4.48;100.00;102757.50;5003744;28;20056;-67
2024/01/25 04:20:44;;;;;;;28.13;6.75;;;;;;;4.45;100.00;102757.56;4999462;28;20040;-66
2024/01/25 04:23:09;;;;;;;28.40;7.20;;;;;;;4.48;100.00;102775.25;4989396;28;20045;-67
2024/01/25 04:25:34;;;;;;;29.70;8.52;;;;;;;4.52;100.00;102772.53;4986721;28;21085;-66
2024/01/25 04:28:00;;;;;;;35.92;7.82;;;;;;;4.54;100.00;102768.06;5007469;28;20029;-67
2024/01/25 04:30:25;;;;;;;24.75;6.38;;;;;;;4.57;100.00;102760.91;5010792;28;20022;-67
2024/01/25 04:32:51;;;;;;;28.90;6.70;;;;;;;4.53;100.00;102754.75;5009433;28;20057;-67
2024/01/25 04:35:16;;;;;;;32.42;8.07;;;;;;;4.50;100.00;102760.16;5001946;28;20444;-67
2024/01/25 04:37:41;;;;;;;28.13;7.05;;;;;;;4.49;100.00;102761.91;4992996;28;20193;-67
2024/01/25 04:40:07;;;;;;;28.70;7.47;;;;;;;4.47;100.00;102758.41;4992323;28;20080;-67
2024/01/25 04:42:33;;;;;;;26.25;6.25;;;;;;;4.42;100.00;102754.06;5007003;28;20029;-67
2024/01/25 04:44:58;;;;;;;31.83;8.05;;;;;;;4.38;100.00;102750.59;5010044;28;20629;-67
2024/01/25 04:47:23;;;;;;;24.10;6.90;;;;;;;4.34;100.00;102751.53;5010831;28;20033;-67
2024/01/25 04:49:48;;;;;;;25.60;5.47;;;;;;;4.26;100.00;102756.09;4992664;28;20121;-67
2024/01/25 04:52:14;;;;;;;25.02;6.10;;;;;;;4.20;100.00;102755.31;5009278;28;20123;-67
2024/01/25 04:54:39;;;;;;;28.27;5.82;;;;;;;4.14;100.00;102747.44;5007330;28;20101;-67
2024/01/25 04:57:06;;;;;;;27.95;7.40;;;;;;;4.15;100.00;102751.81;5005459;28;20305;-67
2024/01/25 04:59:33;;;;;;;29.70;6.82;;;;;;;4.11;100.00;102757.22;4992181;28;20022;-67
2024/01/25 05:01:58;;;;;;;22.83;6.35;;;;;;;4.09;100.00;102746.59;5004222;28;20030;-67
2024/01/25 05:04:23;;;;;;;26.10;7.28;;;;;;;4.12;100.00;102754.53;5005321;28;20026;-67
2024/01/25 05:06:49;;;;;;;26.20;6.47;;;;;;;4.15;100.00;102762.47;5006263;28;20021;-67
2024/01/25 05:09:14;;;;;;;30.85;7.05;;;;;;;4.19;100.00;102760.66;4992959;28;20034;-67
2024/01/25 05:11:40;;;;;;;28.35;7.55;;;;;;;4.18;100.00;102753.56;4993360;28;20149;-67
2024/01/25 05:14:05;;;;;;;24.60;6.13;;;;;;;4.07;100.00;102756.41;5007398;28;20105;-67
2024/01/25 05:16:31;;;;;;;25.33;5.90;;;;;;;4.01;100.00;102751.16;5008677;28;24041;-67
2024/01/25 05:18:56;;;;;;;25.42;6.70;;;;;;;3.99;100.00;102747.66;5004223;28;20022;-67
2024/01/25 05:21:21;;;;;;;23.10;6.45;;;;;;;3.89;100.00;102744.22;5004614;28;20133;-67
2024/01/25 05:23:47;;;;;;;22.95;5.80;;;;;;;3.89;100.00;102735.38;4999886;28;20105;-67
2024/01/25 05:26:12;;;;;;;26.98;6.32;;;;;;;3.83;100.00;102741.66;4992606;28;20099;-67
2024/01/25 05:28:37;;;;;;;26.27;7.05;;;;;;;3.80;100.00;102739.06;5003758;28;20454;-67
2024/01/25 05:31:03;;;;;;;25.23;5.85;;;;;;;3.79;100.00;102746.16;5005960;28;20521;-67
2024/01/25 05:33:28;;;;;;;26.55;7.15;;;;;;;3.79;100.00;102750.59;4983752;28;20113;-67
2024/01/25 05:35:53;;;;;;;25.77;5.07;;;;;;;3.74;100.00;102758.63;5005456;28;20037;-67
2024/01/25 05:38:19;;;;;;;22.17;6.40;;;;;;;3.68;100.00;102766.72;5000403;28;20473;-67
2024/01/25 05:40:44;;;;;;;25.25;5.95;;;;;;;3.62;100.00;102754.38;5001735;28;20018;-66
2024/01/25 05:43:09;;;;;;;25.13;6.47;;;;;;;3.55;100.00;102751.81;4985250;28;20114;-66
2024/01/25 05:45:35;;;;;;;20.73;6.05;;;;;;;3.49;100.00;102758.97;5001699;28;20028;-66
2024/01/25 05:48:00;;;;;;;27.88;6.28;;;;;;;3.49;100.00;102764.28;4999331;28;20037;-66
2024/01/25 05:50:26;;;;;;;23.00;6.47;;;;;;;3.46;100.00;102759.00;5000109;28;20617;-67
2024/01/25 05:52:51;;;;;;;29.85;6.63;;;;;;;3.43;100.00;102759.03;5002872;28;20385;-66
2024/01/25 05:55:17;;;;;;;25.25;6.63;;;;;;;3.45;100.00;102762.56;5000780;28;20033;-66
2024/01/25 05:57:43;;;;;;;20.27;5.95;;;;;;;3.45;100.00;102770.53;5002592;28;20341;-66
2024/01/25 06:00:11;;;;;;;27.30;6.43;;;;;;;3.51;100.00;102772.22;4998878;28;20554;-67
2024/01/25 06:02:36;;;;;;;25.90;6.75;;;;;;;3.57;100.00;102776.59;4998923;28;20163;-66
2024/01/25 06:05:02;;;;;;;18.65;5.80;;;;;;;3.56;100.00;102769.50;5001740;28;20112;-66
2024/01/25 06:07:27;;;;;;;26.70;7.32;;;;;;;3.46;100.00;102764.31;5003343;28;20085;-68
2024/01/25 06:09:53;;;;;;;23.48;6.25;;;;;;;3.40;100.00;102751.13;5001793;28;20050;-66
2024/01/25 06:12:18;;;;;;;22.17;6.55;;;;;;;3.41;100.00;102755.53;4980999;28;20307;-68
2024/01/25 06:14:44;;;;;;;27.02;7.43;;;;;;;3.41;100.00;102760.84;4987171;28;20018;-66
2024/01/25 06:17:09;;;;;;;25.70;7.30;;;;;;;3.43;100.00;102768.81;4999716;28;20033;-66
2024/01/25 06:19:34;;;;;;;22.75;6.47;;;;;;;3.40;100.00;102769.72;5001265;28;20536;-67
2024/01/25 06:22:00;;;;;;;27.98;6.65;;;;;;;3.39;100.00;102765.28;5000015;28;20037;-66
2024/01/25 06:24:26;;;;;;;21.48;6.15;;;;;;;3.36;100.00;102775.09;4996853;28;20347;-66
2024/01/25 06:26:53;;;;;;;24.50;6.13;;;;;;;3.29;100.00;102782.25;4996741;28;20101;-66
2024/01/25 06:29:18;;;;;;;21.30;6.88;;;;;;;3.27;100.00;102782.28;5000816;28;20336;-68
2024/01/25 06:31:44;;;;;;;27.60;7.07;;;;;;;3.29;100.00;102791.13;4998869;28;20111;-66
2024/01/25 06:34:10;;;;;;;22.75;6.95;;;;;;;3.21;100.00;102792.97;5003770;28;20492;-66
2024/01/25 06:36:35;;;;;;;22.60;6.90;;;;;;;3.26;100.00;102796.44;5005562;28;20022;-66
2024/01/25 06:39:00;;;;;;;25.65;6.78;;;;;;;3.22;100.00;102785.88;5003626;28;20424;-66
2024/01/25 06:41:28;;;;;;;23.50;6.90;;;;;;;3.23;100.00;102777.00;4985895;28;20018;-67
2024/01/25 06:43:54;;;;;;;25.02;6.00;;;;;;;3.18;100.00;102776.16;5004626;28;20087;-66
2024/01/25 06:46:19;;;;;;;21.98;6.50;;;;;;;3.20;100.00;102785.03;5002276;28;20044;-66
2024/01/25 06:48:44;;;;;;;24.30;7.25;;;;;;;3.18;100.00;102792.13;4988996;28;20537;-64
2024/01/25 06:51:10;;;;;;;29.98;7.97;;;;;;;3.18;100.00;102786.78;5006851;28;20036;-66
2024/01/25 06:53:35;;;;;;;24.45;7.75;;;;;;;3.08;100.00;102781.59;4986044;28;20065;-64
2024/01/25 06:56:00;;;;;;;26.45;7.40;;;;;;;3.09;100.00;102780.72;5005687;28;20324;-64
2024/01/25 06:58:26;;;;;;;24.70;7.20;;;;;;;3.06;100.00;102777.19;4991413;28;20045;-65
2024/01/25 07:00:52;;;;;;;24.83;6.70;;;;;;;3.08;100.00;102784.25;5009976;28;20489;-64
2024/01/25 07:03:18;;;;;;;23.92;7.32;;;;;;;3.09;100.00;102787.78;5009579;28;20041;-66
2024/01/25 07:05:43;;;;;;;28.10;7.45;;;;;;;3.11;100.00;102788.66;5010343;28;20441;-64
2024/01/25 07:08:12;;;;;;;18.58;6.07;;;;;;;3.04;100.00;102786.97;5010608;28;20038;-64
2024/01/25 07:10:37;;;;;;;25.23;6.05;;;;;;;2.99;100.00;102794.97;5008445;28;20037;-64
2024/01/25 07:13:03;;;;;;;23.70;6.28;;;;;;;2.93;100.00;102787.09;4990617;28;20425;-64
2024/01/25 07:15:28;;;;;;;26.40;7.05;;;;;;;2.98;100.00;102774.63;4993398;28;20025;-64
2024/01/25 07:17:53;;;;;;;22.88;7.00;;;;;;;2.96;100.00;102777.28;5005731;28;20032;-64
2024/01/25 07:20:19;;;;;;;29.52;7.65;;;;;;;3.06;100.00;102790.47;4990905;28;20470;-65
2024/01/25 07:22:44;;;;;;;34.85;8.55;;;;;;;3.08;100.00;102789.56;4992145;28;20036;-64
2024/01/25 07:25:09;;;;;;;39.13;7.90;;;;;;;3.14;100.00;102802.78;5010339;28;20036;-64
2024/01/25 07:27:35;;;;;;;31.00;8.45;;;;;;;3.12;100.00;102798.41;5008907;28;20181;-66
2024/01/25 07:30:01;;;;;;;24.98;7.55;;;;;;;3.24;100.00;102797.38;5009980;28;20107;-65
2024/01/25 07:32:27;;;;;;;33.65;8.45;;;;;;;3.32;100.00;102801.72;5011876;28;20060;-65
2024/01/25 07:34:53;;;;;;;27.95;9.45;;;;;;;3.43;100.00;102804.22;5008505;28;20056;-64
2024/01/25 07:37:18;;;;;;;29.00;9.55;;;;;;;3.49;100.00;102801.50;5009020;28;20583;-68
2024/01/25 07:39:44;;;;;;;32.22;10.18;;;;;;;3.56;100.00;102804.97;5001991;28;20087;-65
2024/01/25 07:42:09;;;;;;;26.17;8.27;;;;;;;3.62;100.00;102796.91;5010676;28;20030;-64
2024/01/25 07:44:35;;;;;;;29.15;7.55;;;;;;;3.64;100.00;102808.41;4992901;28;20075;-65
2024/01/25 07:47:00;;;;;;;23.15;7.28;;;;;;;3.66;100.00;102803.97;4991286;28;20385;-65
2024/01/25 07:49:25;;;;;;;31.05;9.63;;;;;;;3.74;100.00;102803.84;4991048;28;20111;-65
2024/01/25 07:51:51;;;;;;;26.88;8.27;;;;;;;3.78;100.00;102797.59;4993193;28;20017;-65
2024/01/25 07:54:16;;;;;;;29.98;10.60;;;;;;;3.84;100.00;102794.84;5011325;28;20091;-65
2024/01/25 07:56:42;;;;;;;32.05;10.10;;;;;;;3.91;100.00;102786.78;4989054;28;20044;-66
2024/01/25 07:59:07;;;;;;;32.03;8.77;;;;;;;3.96;100.00;102790.25;5002110;28;20488;-67
2024/01/25 08:01:32;;;;;;;35.78;9.90;;;;;;;4.00;100.00;102786.66;5004027;28;20028;-67
2024/01/25 08:03:59;;;;;;;35.22;9.82;;;;;;;4.05;100.00;102795.44;5005155;28;20026;-67
2024/01/25 08:06:26;;;;;;;26.35;8.73;;;;;;;4.09;100.00;102797.16;4987393;28;20057;-67
2024/01/25 08:08:51;;;;;;;36.55;9.07;;;;;;;4.13;100.00;102804.19;5001585;28;20117;-67
2024/01/25 08:11:19;;;;;;;30.33;9.13;;;;;;;4.16;100.00;102808.59;5003403;28;20189;-67
2024/01/25 08:13:45;;;;;;;29.77;8.77;;;;;;;4.18;100.00;102807.66;5006013;28;20030;-68
2024/01/25 08:16:11;;;;;;;36.55;10.52;;;;;;;4.22;100.00;102803.19;5005353;28;20908;-68
2024/01/25 08:18:36;;;;;;;32.47;8.88;;;;;;;4.25;100.00;102810.25;4985955;28;20089;-68
2024/01/25 08:21:01;;;;;;;30.55;9.48;;;;;;;4.26;100.00;102820.88;5007289;28;20076;-68
2024/01/25 08:23:27;;;;;;;27.67;10.68;;;;;;;4.31;100.00;102819.00;5005179;28;20112;-67
2024/01/25 08:25:52;;;;;;;33.08;9.45;;;;;;;4.32;100.00;102804.81;5008935;28;20049;-67
2024/01/25 08:28:18;;;;;;;33.05;10.15;;;;;;;4.37;100.00;102794.94;5008871;28;20052;-67
2024/01/25 08:30:43;;;;;;;30.73;10.90;;;;;;;4.39;100.00;102773.63;5008010;28;20025;-67
2024/01/25 08:33:08;;;;;;;34.45;10.57;;;;;;;4.40;100.00;102774.50;5004262;28;20037;-67
2024/01/25 08:35:34;;;;;;;28.38;10.05;;;;;;;4.42;100.00;102786.88;5005786;28;20032;-68
2024/01/25 08:37:59;;;;;;;24.42;9.23;;;;;;;4.47;100.00;102786.81;5005713;28;20043;-67
2024/01/25 08:40:24;;;;;;;29.20;10.38;;;;;;;4.49;100.00;102788.53;4987217;28;20033;-67
2024/01/25 08:42:49;;;;;;;30.10;10.40;;;;;;;4.53;100.00;102792.03;5002744;28;20103;-68
2024/01/25 08:45:15;;;;;;;32.63;10.35;;;;;;;4.55;100.00;102807.09;5005720;28;20030;-68
2024/01/25 08:47:40;;;;;;;35.15;10.65;;;;;;;4.60;100.00;102815.00;5005142;28;20029;-68
2024/01/25 08:50:10;;;;;;;28.17;11.02;;;;;;;4.63;100.00;102827.41;4988375;28;20029;-68
2024/01/25 08:52:40;;;;;;;32.72;11.40;;;;;;;4.67;100.00;102814.00;5003434;28;20037;-68
2024/01/25 08:55:06;;;;;;;35.95;11.35;;;;;;;4.70;100.00;102824.59;5004933;28;20031;-67
2024/01/25 08:57:31;;;;;;;32.50;11.25;;;;;;;4.75;100.00;102815.66;4991378;28;20032;-68
2024/01/25 08:59:58;;;;;;;33.92;11.73;;;;;;;4.75;100.00;102811.19;5009514;28;20113;-68
2024/01/25 09:02:26;;;;;;;34.85;12.00;;;;;;;4.79;100.00;102815.56;4987489;28;20037;-68
2024/01/25 09:04:53;;;;;;;31.02;11.27;;;;;;;4.79;100.00;102810.25;5007432;28;20442;-68
2024/01/25 09:07:22;;;;;;;31.23;12.60;;;;;;;4.83;100.00;102817.28;5008298;28;20101;-67
2024/01/25 09:09:48;;;;;;;27.30;11.90;;;;;;;4.84;100.00;102812.81;4990983;28;20101;-68
2024/01/25 09:12:14;;;;;;;27.80;11.88;;;;;;;4.86;100.00;102811.91;4988738;28;20062;-67
2024/01/25 09:14:39;;;;;;;31.67;13.57;;;;;;;4.92;100.00;102815.34;4993114;28;20022;-67
2024/01/25 09:17:05;;;;;;;32.80;12.50;;;;;;;4.93;100.00;102822.44;5006465;28;20095;-67
2024/01/25 09:19:31;;;;;;;31.15;11.77;;;;;;;4.97;100.00;102822.34;5010283;28;20577;-68
2024/01/25 09:21:59;;;;;;;29.80;12.60;;;;;;;5.01;100.00;102821.41;5010065;28;20036;-68
2024/01/25 09:24:24;;;;;;;31.17;13.38;;;;;;;5.07;100.00;102809.75;5010567;28;20037;-68
2024/01/25 09:26:50;;;;;;;30.88;13.23;;;;;;;5.11;100.00;102811.44;5007669;28;20049;-67
2024/01/25 09:29:15;;;;;;;36.03;12.98;;;;;;;5.16;100.00;102812.22;5006814;28;20099;-67
2024/01/25 09:31:40;;;;;;;34.97;14.45;;;;;;;5.23;100.00;102816.53;5009055;28;20091;-67
2024/01/25 09:34:06;;;;;;;30.67;12.77;;;;;;;5.30;100.00;102819.06;5009894;28;20034;-68
2024/01/25 09:36:31;;;;;;;30.58;13.13;;;;;;;5.33;100.00;102822.59;5009821;28;20416;-68
2024/01/25 09:38:57;;;;;;;36.88;15.70;;;;;;;5.39;100.00;102813.59;4993379;28;20109;-68
2024/01/25 09:41:22;;;;;;;31.73;14.45;;;;;;;5.40;100.00;102807.31;5009775;28;20030;-68
2024/01/25 09:43:47;;;;;;;32.38;15.23;;;;;;;5.45;100.00;102815.22;5006844;28;20084;-68
2024/01/25 09:46:15;;;;;;;32.28;14.82;;;;;;;5.48;100.00;102818.72;5008744;28;20228;-67
2024/01/25 09:48:43;;;;;;;38.53;15.45;;;;;;;5.52;100.00;102823.09;4992790;28;20026;-68
2024/01/25 09:51:09;;;;;;;33.40;14.57;;;;;;;5.53;100.00;102832.81;5009520;28;20108;-68
2024/01/25 09:53:36;;;;;;;32.53;13.35;;;;;;;5.58;100.00;102827.44;5009284;28;20030;-68
2024/01/25 09:56:07;;;;;;;34.83;14.30;;;;;;;5.60;100.00;102821.13;5011644;28;20037;-68
2024/01/25 09:58:45;;;;;;;33.95;14.05;;;;;;;5.62;100.00;102813.09;5010722;28;20405;-68
2024/01/25 10:01:12;;;;;;;33.30;14.20;;;;;;;5.62;100.00;102804.22;4992306;28;20038;-68
2024/01/25 10:03:47;;;;;;;28.40;12.93;;;;;;;5.61;100.00;102800.69;5002350;28;20105;-67
2024/01/25 10:06:13;;;;;;;34.08;13.57;;;;;;;5.64;100.00;102799.72;5007887;28;20436;-67
2024/01/25 10:08:39;;;;;;;29.60;14.32;;;;;;;5.66;100.00;102800.59;4991087;28;20037;-68
2024/01/25 10:11:05;;;;;;;31.85;13.43;;;;;;;5.66;100.00;102798.78;4990149;28;20489;-68
2024/01/25 10:13:31;;;;;;;43.05;15.90;;;;;;;5.70;100.00;102788.94;5008687;28;20052;-68
2024/01/25 10:15:57;;;;;;;32.88;14.95;;;;;;;5.76;100.00;102799.47;4995589;28;20033;-67
2024/01/25 10:18:23;;;;;;;34.22;15.23;;;;;;;5.77;100.00;102798.56;5006429;28;20030;-68
2024/01/25 10:20:48;;;;;;;37.10;15.52;;;;;;;5.83;100.00;102790.44;4988247;28;20037;-68
2024/01/25 10:23:14;;;;;;;39.35;14.93;;;;;;;5.87;100.00;102784.13;5009857;28;20087;-67
2024/01/25 10:25:39;;;;;;;39.55;14.68;;;;;;;5.92;100.00;102792.00;5004771;28;20470;-68
2024/01/25 10:28:07;;;;;;;36.03;15.18;;;;;;;5.96;100.00;102791.03;5009175;28;20368;-68
2024/01/25 10:30:35;;;;;;;37.85;15.07;;;;;;;6.01;100.00;102788.28;5008759;28;20109;-68
2024/01/25 10:33:01;;;;;;;43.50;16.67;;;;;;;6.06;100.00;102779.28;4991050;28;20026;-68
2024/01/25 10:35:27;;;;;;;42.08;15.93;;;;;;;6.11;100.00;102761.34;5008561;28;20434;-68
2024/01/25 10:37:54;;;;;;;37.20;16.00;;;;;;;6.17;100.00;102768.31;4985851;28;20030;-68
2024/01/25 10:40:20;;;;;;;37.15;15.73;;;;;;;6.20;100.00;102762.91;5008586;28;20026;-68
2024/01/25 10:42:46;;;;;;;35.10;15.63;;;;;;;6.24;100.00;102758.38;5009893;28;20037;-68
2024/01/25 10:45:12;;;;;;;39.72;16.42;;;;;;;6.29;100.00;102751.13;4991689;28;20044;-68
2024/01/25 10:47:40;;;;;;;47.47;18.00;;;;;;;6.36;100.00;102752.72;5004804;28;20527;-68
2024/01/25 10:50:09;;;;;;;43.70;16.30;;;;;;;6.40;100.00;102742.84;5007534;28;20034;-68
2024/01/25 10:52:36;;;;;;;37.47;16.67;;;;;;;6.44;100.00;102739.16;4987415;28;20036;-68
2024/01/25 10:55:04;;;;;;;49.95;16.60;;;;;;;6.46;100.00;102750.72;5007894;28;20025;-68
2024/01/25 10:57:39;;;;;;;43.58;16.52;;;;;;;6.50;100.00;102756.84;5001995;28;20037;-68
2024/01/25 11:00:09;;;;;;;38.28;14.70;;;;;;;6.54;100.00;102745.16;5008551;28;20026;-68
2024/01/25 11:02:35;;;;;;;39.13;14.32;;;;;;;6.58;100.00;102749.53;5004913;28;20957;-68
2024/01/25 11:05:02;;;;;;;40.33;15.25;;;;;;;6.61;100.00;102746.75;4984124;28;20052;-68
2024/01/25 11:07:28;;;;;;;48.33;16.60;;;;;;;6.64;100.00;102747.53;5005119;28;20594;-68